createdAt,value
2023-03-11T00:00:34.415Z,62.97
2023-03-11T00:03:02.957Z,63.91
2023-03-11T00:05:33.593Z,64.35
2023-03-11T00:08:01.182Z,64.45
2023-03-11T00:10:30.878Z,64.42
2023-03-11T00:12:59.050Z,64.21
2023-03-11T00:15:26.740Z,64.48
2023-03-11T00:17:54.086Z,64.21
2023-03-11T00:20:27.730Z,64.17
2023-03-11T00:22:55.304Z,64.61
2023-03-11T00:25:24.552Z,64.36
2023-03-11T00:27:51.325Z,63.50
2023-03-11T00:30:19.528Z,63.76
2023-03-11T00:32:48.737Z,62.41
2023-03-11T00:35:18.941Z,62.44
2023-03-11T00:37:47.315Z,62.85
2023-03-11T00:40:20.184Z,62.67
2023-03-11T00:42:47.091Z,62.79
2023-03-11T00:45:14.699Z,63.73
2023-03-11T00:47:42.176Z,63.72
2023-03-11T00:50:12.192Z,62.39
2023-03-11T00:52:38.905Z,63.41
2023-03-11T00:55:06.667Z,63.53
2023-03-11T00:57:34.556Z,63.34
2023-03-11T01:00:01.245Z,62.59
2023-03-11T01:02:28.038Z,62.55
2023-03-11T01:04:56.545Z,62.59
2023-03-11T01:07:23.458Z,63.47
2023-03-11T01:09:50.135Z,62.95
2023-03-11T01:12:16.875Z,64.10
2023-03-11T01:14:43.676Z,62.72
2023-03-11T01:17:10.397Z,63.16
2023-03-11T01:19:37.075Z,62.54
2023-03-11T01:22:03.945Z,62.75
2023-03-11T01:24:30.593Z,63.31
2023-03-11T01:26:57.262Z,63.97
2023-03-11T01:29:24.804Z,64.02
2023-03-11T01:31:51.578Z,64.18
2023-03-11T01:34:18.331Z,63.79
2023-03-11T01:36:44.994Z,64.80
2023-03-11T01:39:11.870Z,64.84
2023-03-11T01:41:38.549Z,64.66
2023-03-11T01:44:05.772Z,64.79
2023-03-11T01:47:00.044Z,64.65
2023-03-11T01:49:32.754Z,64.72
2023-03-11T01:52:07.775Z,64.95
2023-03-11T01:54:41.446Z,65.05
2023-03-11T01:57:13.407Z,64.87
2023-03-11T01:59:47.208Z,65.21
2023-03-11T02:02:25.376Z,63.83
2023-03-11T02:04:53.337Z,64.97
2023-03-11T02:07:22.967Z,64.30
2023-03-11T02:09:49.763Z,64.97
2023-03-11T02:12:16.683Z,65.25
2023-03-11T02:14:48.351Z,64.54
2023-03-11T02:17:15.520Z,65.91
2023-03-11T02:20:07.557Z,65.02
2023-03-11T02:22:34.835Z,65.88
2023-03-11T02:25:11.812Z,65.55
2023-03-11T02:27:43.419Z,65.33
2023-03-11T02:30:12.985Z,65.75
2023-03-11T02:32:42.928Z,65.34
2023-03-11T02:35:09.881Z,66.53
2023-03-11T02:37:36.871Z,66.81
2023-03-11T02:40:24.752Z,66.42
2023-03-11T02:42:58.181Z,66.68
2023-03-11T02:45:26.538Z,66.27
2023-03-11T02:47:55.608Z,66.24
2023-03-11T02:50:22.850Z,66.54
2023-03-11T02:52:50.165Z,65.97
2023-03-11T02:55:18.088Z,67.07
2023-03-11T02:57:45.191Z,66.79
2023-03-11T03:00:15.737Z,66.48
2023-03-11T03:02:52.115Z,66.23
2023-03-11T03:05:20.728Z,66.12
2023-03-11T03:07:49.142Z,66.24
2023-03-11T03:10:18.789Z,66.53
2023-03-11T03:12:45.981Z,65.87
2023-03-11T03:15:12.782Z,65.21
2023-03-11T03:17:39.651Z,65.23
2023-03-11T03:20:12.561Z,66.31
2023-03-11T03:22:42.847Z,65.84
2023-03-11T03:25:11.723Z,65.22
2023-03-11T03:27:38.976Z,64.78
2023-03-11T03:30:08.189Z,65.06
2023-03-11T03:32:35.691Z,64.82
2023-03-11T03:35:04.670Z,65.66
2023-03-11T03:38:01.144Z,65.60
2023-03-11T03:40:27.918Z,66.36
2023-03-11T03:42:57.094Z,66.11
2023-03-11T03:45:24.479Z,66.24
2023-03-11T03:47:53.035Z,66.74
2023-03-11T03:50:22.013Z,66.82
2023-03-11T03:52:50.554Z,66.04
2023-03-11T03:55:17.594Z,67.21
2023-03-11T03:57:44.260Z,66.14
2023-03-11T04:00:13.518Z,66.35
2023-03-11T04:02:46.218Z,66.58
2023-03-11T04:05:21.942Z,66.86
2023-03-11T04:07:48.725Z,67.60
2023-03-11T04:10:15.709Z,68.36
2023-03-11T04:12:43.183Z,67.89
2023-03-11T04:15:10.584Z,68.29
2023-03-11T04:17:38.762Z,68.34
2023-03-11T04:20:10.362Z,67.80
2023-03-11T04:22:37.118Z,68.01
2023-03-11T04:25:04.979Z,67.88
2023-03-11T04:27:32.632Z,68.25
2023-03-11T04:30:00.219Z,68.14
2023-03-11T04:32:27.055Z,68.37
2023-03-11T04:34:53.736Z,68.20
2023-03-11T04:37:20.515Z,68.49
2023-03-11T04:39:47.478Z,67.91
2023-03-11T04:42:14.240Z,68.15
2023-03-11T04:44:43.312Z,67.46
2023-03-11T04:47:10.299Z,67.23
2023-03-11T04:49:37.180Z,67.06
2023-03-11T04:52:04.254Z,67.63
2023-03-11T04:54:30.978Z,67.68
2023-03-11T04:56:57.712Z,68.12
2023-03-11T04:59:24.744Z,68.07
2023-03-11T05:01:52.270Z,67.55
2023-03-11T05:04:19.339Z,67.91
2023-03-11T05:06:46.330Z,67.66
2023-03-11T05:09:14.087Z,66.92
2023-03-11T05:11:41.073Z,67.40
2023-03-11T05:14:08.506Z,67.44
2023-03-11T05:16:35.580Z,67.38
2023-03-11T05:19:23.740Z,67.39
2023-03-11T05:21:50.676Z,67.38
2023-03-11T05:24:17.366Z,67.44
2023-03-11T05:26:44.078Z,66.97
2023-03-11T05:29:10.837Z,67.78
2023-03-11T05:31:37.632Z,67.38
2023-03-11T05:34:04.453Z,67.61
2023-03-11T05:36:31.162Z,67.98
2023-03-11T05:38:58.064Z,68.48
2023-03-11T05:41:24.885Z,68.34
2023-03-11T05:43:52.270Z,68.22
2023-03-11T05:46:20.539Z,68.65
2023-03-11T05:48:47.369Z,68.37
2023-03-11T05:51:14.707Z,68.53
2023-03-11T05:53:48.457Z,67.93
2023-03-11T05:56:21.864Z,67.54
2023-03-11T05:58:49.780Z,67.34
2023-03-11T06:01:19.466Z,67.03
2023-03-11T06:03:46.787Z,67.04
2023-03-11T06:06:14.231Z,66.50
2023-03-11T06:08:45.863Z,66.78
2023-03-11T06:11:12.968Z,66.84
2023-03-11T06:13:40.059Z,67.52
2023-03-11T06:16:09.534Z,67.01
2023-03-11T06:18:36.612Z,66.64
2023-03-11T06:21:05.067Z,66.89
2023-03-11T06:23:32.980Z,67.04
2023-03-11T06:26:02.734Z,66.74
2023-03-11T06:28:32.179Z,66.80
2023-03-11T06:31:10.924Z,65.67
2023-03-11T06:33:37.929Z,64.37
2023-03-11T06:36:06.092Z,63.61
2023-03-11T06:38:36.276Z,62.77
2023-03-11T06:41:05.805Z,62.64
2023-03-11T06:43:35.503Z,61.08
2023-03-11T06:46:11.392Z,58.39
2023-03-11T06:48:39.378Z,57.16
2023-03-11T06:51:06.255Z,55.75
2023-03-11T06:53:33.768Z,53.67
2023-03-11T06:56:05.112Z,53.22
2023-03-11T06:58:37.259Z,52.13
2023-03-11T07:01:10.754Z,51.91
2023-03-11T07:03:38.751Z,50.64
2023-03-11T07:06:06.775Z,48.78
2023-03-11T07:08:33.943Z,47.11
2023-03-11T07:11:06.706Z,45.38
2023-03-11T07:13:34.695Z,43.03
2023-03-11T07:16:07.613Z,41.59
2023-03-11T07:18:35.549Z,39.54
2023-03-11T07:21:04.181Z,38.02
2023-03-11T07:23:30.924Z,36.61
2023-03-11T07:25:57.641Z,34.96
2023-03-11T07:28:25.829Z,34.22
2023-03-11T07:30:53.162Z,32.54
2023-03-11T07:33:21.564Z,31.30
2023-03-11T07:35:49.295Z,31.00
2023-03-11T07:38:17.906Z,30.19
2023-03-11T07:40:44.707Z,29.13
2023-03-11T07:43:11.628Z,28.00
2023-03-11T07:45:38.312Z,27.92
2023-03-11T07:48:05.392Z,28.46
2023-03-11T07:50:32.074Z,28.03
2023-03-11T07:52:58.777Z,26.74
2023-03-11T07:55:25.460Z,26.19
2023-03-11T07:57:52.162Z,25.35
2023-03-11T08:00:19.708Z,24.14
2023-03-11T08:02:46.534Z,23.40
2023-03-11T08:05:13.436Z,23.19
2023-03-11T08:07:40.076Z,23.27
2023-03-11T08:10:07.263Z,24.03
2023-03-11T08:12:34.056Z,23.26
2023-03-11T08:15:00.792Z,22.99
2023-03-11T08:17:27.473Z,22.84
2023-03-11T08:19:54.116Z,22.75
2023-03-11T08:22:20.860Z,21.61
2023-03-11T08:24:51.805Z,21.79
2023-03-11T08:27:18.828Z,21.10
2023-03-11T08:29:45.518Z,22.08
2023-03-11T08:32:12.257Z,21.74
2023-03-11T08:34:39.522Z,20.28
2023-03-11T08:37:06.788Z,19.46
2023-03-11T08:39:33.490Z,19.20
2023-03-11T08:42:00.595Z,19.16
2023-03-11T08:44:27.297Z,18.71
2023-03-11T08:46:54.258Z,18.33
2023-03-11T08:49:20.960Z,18.77
2023-03-11T08:51:47.588Z,18.65
2023-03-11T08:54:14.303Z,16.75
2023-03-11T08:56:40.990Z,17.43
2023-03-11T08:59:08.537Z,19.11
2023-03-11T09:01:35.228Z,18.08
2023-03-11T09:04:01.945Z,20.21
2023-03-11T09:06:30.434Z,19.94
2023-03-11T09:08:57.720Z,18.46
2023-03-11T09:11:24.811Z,18.16
2023-03-11T09:13:51.893Z,18.10
2023-03-11T09:16:21.431Z,17.81
2023-03-11T09:18:48.725Z,17.52
2023-03-11T09:21:15.504Z,17.83
2023-03-11T09:23:44.331Z,18.94
2023-03-11T09:26:12.503Z,18.33
2023-03-11T09:28:40.215Z,19.28
2023-03-11T09:31:07.232Z,18.71
2023-03-11T09:33:39.648Z,17.38
2023-03-11T09:36:07.319Z,16.04
2023-03-11T09:38:34.258Z,14.23
2023-03-11T09:41:23.104Z,13.02
2023-03-11T09:43:55.835Z,14.11
2023-03-11T09:46:49.887Z,13.52
2023-03-11T09:49:27.895Z,13.83
2023-03-11T09:52:15.603Z,12.56
2023-03-11T09:54:52.314Z,12.15
2023-03-11T09:57:26.611Z,12.95
2023-03-11T09:59:54.524Z,13.36
2023-03-11T10:02:26.649Z,12.50
2023-03-11T10:05:00.946Z,11.98
2023-03-11T10:07:39.821Z,13.82
2023-03-11T10:10:11.266Z,15.39
2023-03-11T10:12:52.133Z,17.01
2023-03-11T10:15:39.620Z,19.00
2023-03-11T10:18:28.018Z,21.45
2023-03-11T10:20:54.611Z,23.00
2023-03-11T10:23:47.229Z,24.26
2023-03-11T10:26:23.274Z,23.45
2023-03-11T10:29:00.090Z,20.23
2023-03-11T10:31:32.910Z,17.41
2023-03-11T10:34:45.210Z,15.21
2023-03-11T10:37:18.635Z,14.35
2023-03-11T10:39:50.564Z,13.53
2023-03-11T10:42:22.503Z,13.56
2023-03-11T10:44:51.070Z,12.79
2023-03-11T10:47:24.311Z,14.25
2023-03-11T10:49:52.381Z,12.67
2023-03-11T10:52:20.060Z,12.95
2023-03-11T10:54:58.548Z,11.17
2023-03-11T10:57:29.071Z,10.38
2023-03-11T10:59:58.319Z,11.78
2023-03-11T11:02:42.084Z,12.50
2023-03-11T11:05:16.094Z,11.81
2023-03-11T11:07:44.927Z,14.95
2023-03-11T11:10:11.527Z,18.09
2023-03-11T11:13:02.472Z,20.73
2023-03-11T11:15:37.442Z,22.53
2023-03-11T11:18:19.698Z,23.75
2023-03-11T11:21:06.941Z,22.53
2023-03-11T11:23:41.892Z,18.99
2023-03-11T11:26:22.137Z,17.70
2023-03-11T11:29:27.271Z,16.53
2023-03-11T11:32:19.101Z,14.10
2023-03-11T11:34:59.715Z,15.19
2023-03-11T11:37:31.807Z,14.10
2023-03-11T11:40:11.167Z,14.95
2023-03-11T11:42:41.210Z,13.72
2023-03-11T11:45:22.768Z,13.67
2023-03-11T11:47:53.993Z,13.77
2023-03-11T11:50:35.990Z,12.32
2023-03-11T11:53:15.086Z,13.17
2023-03-11T11:55:47.692Z,12.80
2023-03-11T11:58:14.761Z,13.08
2023-03-11T12:01:05.679Z,12.46
2023-03-11T12:03:44.358Z,13.31
2023-03-11T12:06:25.087Z,12.63
2023-03-11T12:09:14.660Z,11.85
2023-03-11T12:11:56.107Z,11.29
2023-03-11T12:14:45.782Z,11.43
2023-03-11T12:17:14.883Z,11.60
2023-03-11T12:19:46.025Z,12.39
2023-03-11T12:22:38.878Z,13.42
2023-03-11T12:25:27.228Z,13.58
2023-03-11T12:28:09.215Z,13.61
2023-03-11T12:30:43.946Z,13.06
2023-03-11T12:33:43.121Z,15.80
2023-03-11T12:36:40.662Z,19.75
2023-03-11T12:39:19.489Z,20.80
2023-03-11T12:41:46.522Z,21.05
2023-03-11T12:44:30.763Z,21.46
2023-03-11T12:47:15.343Z,20.85
2023-03-11T12:50:08.722Z,20.67
2023-03-11T12:52:53.468Z,21.92
2023-03-11T12:55:32.006Z,22.34
2023-03-11T12:58:11.470Z,23.72
2023-03-11T13:01:05.606Z,23.40
2023-03-11T13:03:51.066Z,23.99
2023-03-11T13:06:55.617Z,25.00
2023-03-11T13:09:25.110Z,24.65
2023-03-11T13:11:52.049Z,24.41
2023-03-11T13:14:28.737Z,25.18
2023-03-11T13:16:56.419Z,25.01
2023-03-11T13:19:26.096Z,25.64
2023-03-11T13:21:53.790Z,26.39
2023-03-11T13:24:25.799Z,26.53
2023-03-11T13:27:04.952Z,25.44
2023-03-11T13:29:31.792Z,25.41
2023-03-11T13:32:36.432Z,25.58
2023-03-11T13:35:05.778Z,25.95
2023-03-11T13:37:44.217Z,25.25
2023-03-11T13:40:26.423Z,26.13
2023-03-11T13:42:58.023Z,24.71
2023-03-11T13:45:35.687Z,25.85
2023-03-11T13:48:31.280Z,24.97
2023-03-11T13:51:13.161Z,24.46
2023-03-11T13:53:47.490Z,24.44
2023-03-11T13:56:29.208Z,25.28
2023-03-11T13:59:17.451Z,24.59
2023-03-11T14:01:52.362Z,25.27
2023-03-11T14:04:26.426Z,26.11
2023-03-11T14:06:53.381Z,27.34
2023-03-11T14:09:22.982Z,26.84
2023-03-11T14:11:49.916Z,26.61
2023-03-11T14:14:43.436Z,25.87
2023-03-11T14:17:16.585Z,25.97
2023-03-11T14:20:12.253Z,26.67
2023-03-11T14:22:39.217Z,26.34
2023-03-11T14:25:10.147Z,26.58
2023-03-11T14:27:45.362Z,25.93
2023-03-11T14:30:20.407Z,26.43
2023-03-11T14:32:59.764Z,25.75
2023-03-11T14:35:26.917Z,27.17
2023-03-11T14:37:53.807Z,27.01
2023-03-11T14:40:37.621Z,27.06
2023-03-11T14:43:07.273Z,27.18
2023-03-11T14:45:38.899Z,26.80
2023-03-11T14:48:13.464Z,27.43
2023-03-11T14:50:42.678Z,27.26
2023-03-11T14:53:12.189Z,27.64
2023-03-11T14:55:40.501Z,27.99
2023-03-11T14:58:15.952Z,28.11
2023-03-11T15:00:59.656Z,27.84
2023-03-11T15:03:31.008Z,27.43
2023-03-11T15:06:08.534Z,28.06
2023-03-11T15:08:47.300Z,28.00
2023-03-11T15:11:13.851Z,28.16
2023-03-11T15:13:43.044Z,28.14
2023-03-11T15:16:34.732Z,28.47
2023-03-11T15:19:32.067Z,28.16
2023-03-11T15:22:21.643Z,28.09
2023-03-11T15:24:57.694Z,27.65
2023-03-11T15:27:33.003Z,29.48
2023-03-11T15:30:00.781Z,28.88
2023-03-11T15:32:41.289Z,27.99
2023-03-11T15:35:07.962Z,27.83
2023-03-11T15:37:35.125Z,28.67
2023-03-11T15:40:12.816Z,27.89
2023-03-11T15:42:39.577Z,29.67
2023-03-11T15:45:13.266Z,28.55
2023-03-11T15:47:40.550Z,29.19
2023-03-11T15:50:24.519Z,28.96
2023-03-11T15:52:56.648Z,28.61
2023-03-11T15:55:25.337Z,29.01
2023-03-11T15:58:05.550Z,29.25
2023-03-11T16:00:32.458Z,28.79
2023-03-11T16:02:59.185Z,28.86
2023-03-11T16:05:25.988Z,29.70
2023-03-11T16:07:52.640Z,29.44
2023-03-11T16:10:22.463Z,30.13
2023-03-11T16:12:49.150Z,30.22
2023-03-11T16:15:20.981Z,31.01
2023-03-11T16:17:50.389Z,30.47
2023-03-11T16:20:19.066Z,30.75
2023-03-11T16:22:47.492Z,31.06
2023-03-11T16:25:21.875Z,30.57
2023-03-11T16:27:51.012Z,30.11
2023-03-11T16:30:18.493Z,29.68
2023-03-11T16:32:45.202Z,30.29
2023-03-11T16:35:12.142Z,30.32
2023-03-11T16:37:39.737Z,30.95
2023-03-11T16:40:07.250Z,31.25
2023-03-11T16:42:33.924Z,31.21
2023-03-11T16:45:02.777Z,31.71
2023-03-11T16:47:30.514Z,31.75
2023-03-11T16:49:57.126Z,31.33
2023-03-11T16:52:23.898Z,31.15
2023-03-11T16:54:50.683Z,32.20
2023-03-11T16:57:17.376Z,31.78
2023-03-11T16:59:44.214Z,32.20
2023-03-11T17:02:12.174Z,32.47
2023-03-11T17:04:38.842Z,33.54
2023-03-11T17:07:06.980Z,33.80
2023-03-11T17:09:35.238Z,33.70
2023-03-11T17:12:02.624Z,33.99
2023-03-11T17:14:29.356Z,33.49
2023-03-11T17:16:56.027Z,34.27
2023-03-11T17:19:23.997Z,34.19
2023-03-11T17:21:51.468Z,34.20
2023-03-11T17:24:18.346Z,35.08
2023-03-11T17:26:44.990Z,35.37
2023-03-11T17:29:11.648Z,35.77
2023-03-11T17:31:38.380Z,35.75
2023-03-11T17:34:05.022Z,35.67
2023-03-11T17:36:31.786Z,35.53
2023-03-11T17:38:58.421Z,36.79
2023-03-11T17:41:25.126Z,36.45
2023-03-11T17:43:51.785Z,36.39
2023-03-11T17:46:20.382Z,35.74
2023-03-11T17:48:49.085Z,35.93
2023-03-11T17:51:18.982Z,37.42
2023-03-11T17:53:46.633Z,37.34
2023-03-11T17:56:15.995Z,37.59
2023-03-11T17:58:42.683Z,38.13
2023-03-11T18:01:20.336Z,38.16
2023-03-11T18:03:47.530Z,37.89
2023-03-11T18:06:15.487Z,38.11
2023-03-11T18:08:42.130Z,36.76
2023-03-11T18:11:11.406Z,37.88
2023-03-11T18:13:39.866Z,38.30
2023-03-11T18:16:09.524Z,38.31
2023-03-11T18:18:37.351Z,39.46
2023-03-11T18:21:06.188Z,39.89
2023-03-11T18:23:33.345Z,39.73
2023-03-11T18:26:04.580Z,40.13
2023-03-11T18:28:31.861Z,39.87
2023-03-11T18:31:18.284Z,40.17
2023-03-11T18:33:53.973Z,40.63
2023-03-11T18:36:26.990Z,40.21
2023-03-11T18:38:55.260Z,41.92
2023-03-11T18:41:22.177Z,43.23
2023-03-11T18:43:53.783Z,43.91
2023-03-11T18:46:20.590Z,43.33
2023-03-11T18:48:47.283Z,43.03
2023-03-11T18:51:14.115Z,41.71
2023-03-11T18:53:42.836Z,43.79
2023-03-11T18:56:13.760Z,44.99
2023-03-11T18:58:40.672Z,43.85
2023-03-11T19:01:14.119Z,43.48
2023-03-11T19:03:48.504Z,43.87
2023-03-11T19:06:16.516Z,43.08
2023-03-11T19:08:43.553Z,43.50
2023-03-11T19:11:19.917Z,44.50
2023-03-11T19:13:48.080Z,45.17
2023-03-11T19:16:21.544Z,44.87
2023-03-11T19:18:48.366Z,45.01
2023-03-11T19:21:16.240Z,44.75
2023-03-11T19:23:44.229Z,45.29
2023-03-11T19:26:11.030Z,44.74
2023-03-11T19:28:37.765Z,45.75
2023-03-11T19:31:05.399Z,45.93
2023-03-11T19:33:32.500Z,46.16
2023-03-11T19:36:01.778Z,46.34
2023-03-11T19:38:29.143Z,45.82
2023-03-11T19:41:11.091Z,46.37
2023-03-11T19:43:37.866Z,45.30
2023-03-11T19:46:06.346Z,45.40
2023-03-11T19:48:33.733Z,44.89
2023-03-11T19:51:02.288Z,44.93
2023-03-11T19:53:29.253Z,45.16
2023-03-11T19:55:57.462Z,45.15
2023-03-11T19:58:28.636Z,44.87
2023-03-11T20:00:58.071Z,45.28
2023-03-11T20:03:24.993Z,45.34
2023-03-11T20:05:52.528Z,45.45
2023-03-11T20:08:20.939Z,45.47
2023-03-11T20:10:50.246Z,46.02
2023-03-11T20:13:20.114Z,46.15
2023-03-11T20:15:46.971Z,46.29
2023-03-11T20:18:13.698Z,45.96
2023-03-11T20:20:43.008Z,46.41
2023-03-11T20:23:10.173Z,46.06
2023-03-11T20:25:41.458Z,45.12
2023-03-11T20:28:08.714Z,43.79
2023-03-11T20:30:37.585Z,43.76
2023-03-11T20:33:04.441Z,43.93
2023-03-11T20:35:31.202Z,43.34
2023-03-11T20:37:59.310Z,43.09
2023-03-11T20:40:26.158Z,43.35
2023-03-11T20:42:52.957Z,43.57
2023-03-11T20:45:22.527Z,43.09
2023-03-11T20:47:50.425Z,43.17
2023-03-11T20:50:17.577Z,42.97
2023-03-11T20:52:44.718Z,43.99
2023-03-11T20:55:12.557Z,43.59
2023-03-11T20:57:39.820Z,45.21
2023-03-11T21:00:11.274Z,45.64
2023-03-11T21:02:42.856Z,45.79
2023-03-11T21:05:11.379Z,46.40
2023-03-11T21:07:38.541Z,45.96
2023-03-11T21:10:12.660Z,46.53
2023-03-11T21:12:39.465Z,46.62
2023-03-11T21:15:08.297Z,46.88
2023-03-11T21:17:35.913Z,46.91
2023-03-11T21:20:05.194Z,45.33
2023-03-11T21:22:32.813Z,44.79
2023-03-11T21:24:59.464Z,44.01
2023-03-11T21:27:26.665Z,44.11
2023-03-11T21:29:58.030Z,44.41
2023-03-11T21:32:26.743Z,43.98
2023-03-11T21:34:58.669Z,44.91
2023-03-11T21:37:26.187Z,45.15
2023-03-11T21:39:53.109Z,45.28
2023-03-11T21:42:20.206Z,45.36
2023-03-11T21:44:47.156Z,45.79
2023-03-11T21:47:13.981Z,45.96
2023-03-11T21:49:40.813Z,45.71
2023-03-11T21:52:07.568Z,44.80
2023-03-11T21:54:34.281Z,45.15
2023-03-11T21:57:01.186Z,45.11
2023-03-11T21:59:27.982Z,45.17
2023-03-11T22:01:54.776Z,45.77
2023-03-11T22:04:21.728Z,45.08
2023-03-11T22:06:48.539Z,45.59
2023-03-11T22:09:15.301Z,46.40
2023-03-11T22:11:42.131Z,46.62
2023-03-11T22:14:08.871Z,46.61
2023-03-11T22:16:35.726Z,47.12
2023-03-11T22:19:04.308Z,46.93
2023-03-11T22:21:31.021Z,46.58
2023-03-11T22:23:57.729Z,46.91
2023-03-11T22:26:24.369Z,47.04
2023-03-11T22:28:50.965Z,47.08
2023-03-11T22:31:18.890Z,47.30
2023-03-11T22:33:47.401Z,47.68
2023-03-11T22:36:14.381Z,47.19
2023-03-11T22:38:44.107Z,47.69
2023-03-11T22:41:13.270Z,47.37
2023-03-11T22:43:40.088Z,47.27
2023-03-11T22:46:07.003Z,47.73
2023-03-11T22:48:34.591Z,47.41
2023-03-11T22:51:01.943Z,47.38
2023-03-11T22:53:29.118Z,46.89
2023-03-11T22:55:55.914Z,46.46
2023-03-11T22:58:22.566Z,45.27
2023-03-11T23:00:49.260Z,45.38
2023-03-11T23:03:16.018Z,45.62
2023-03-11T23:05:43.203Z,46.28
2023-03-11T23:08:11.970Z,46.57
2023-03-11T23:10:44.447Z,46.93
2023-03-11T23:13:11.550Z,46.48
2023-03-11T23:15:41.860Z,46.91
2023-03-11T23:18:08.870Z,46.73
2023-03-11T23:20:37.229Z,46.67
2023-03-11T23:23:04.568Z,46.52
2023-03-11T23:25:32.185Z,46.91
2023-03-11T23:28:01.471Z,46.74
2023-03-11T23:30:28.966Z,47.32
2023-03-11T23:32:57.036Z,46.78
2023-03-11T23:35:24.279Z,47.02
2023-03-11T23:37:51.099Z,46.90
2023-03-11T23:40:18.573Z,47.09
2023-03-11T23:42:45.252Z,47.21
2023-03-11T23:45:11.995Z,46.82
2023-03-11T23:47:38.766Z,47.06
2023-03-11T23:50:06.048Z,47.75
2023-03-11T23:52:33.484Z,47.72
2023-03-11T23:55:00.421Z,47.82
2023-03-11T23:57:27.305Z,48.17
2023-03-11T23:59:53.970Z,48.16
